createdAt,value
2023-03-14T00:00:31.765Z,1.90
2023-03-14T00:03:00.142Z,2.00
2023-03-14T00:05:28.729Z,1.80
2023-03-14T00:07:57.072Z,2.37
2023-03-14T00:10:25.506Z,2.90
2023-03-14T00:12:53.616Z,2.43
2023-03-14T00:15:23.297Z,2.40
2023-03-14T00:17:51.668Z,2.23
2023-03-14T00:20:20.199Z,2.00
2023-03-14T00:22:48.313Z,2.63
2023-03-14T00:25:17.981Z,2.70
2023-03-14T00:27:46.283Z,3.00
2023-03-14T00:30:14.831Z,2.90
2023-03-14T00:32:44.551Z,2.40
2023-03-14T00:35:12.781Z,2.40
2023-03-14T00:37:43.188Z,2.50
2023-03-14T00:40:12.561Z,2.90
2023-03-14T00:42:40.768Z,2.63
2023-03-14T00:45:11.139Z,2.30
2023-03-14T00:47:39.579Z,2.50
2023-03-14T00:50:10.970Z,2.80
2023-03-14T00:52:39.099Z,2.30
2023-03-14T00:58:50.150Z,3.10
2023-03-14T01:01:20.349Z,2.87
2023-03-14T01:03:49.320Z,2.40
2023-03-14T01:06:20.213Z,3.00
2023-03-14T01:08:51.524Z,2.13
2023-03-14T01:11:22.727Z,2.60
2023-03-14T01:13:51.570Z,2.10
2023-03-14T01:16:20.832Z,2.67
2023-03-14T01:18:49.674Z,2.27
2023-03-14T01:21:21.669Z,2.40
2023-03-14T01:23:51.078Z,2.50
2023-03-14T01:26:21.469Z,2.57
2023-03-14T01:28:50.757Z,2.30
2023-03-14T01:31:19.735Z,1.97
2023-03-14T01:33:48.484Z,2.60
2023-03-14T01:36:18.237Z,2.27
2023-03-14T01:38:46.964Z,2.03
2023-03-14T01:41:18.080Z,2.40
2023-03-14T01:43:48.618Z,2.00
2023-03-14T01:46:30.550Z,2.13
2023-03-14T01:49:05.721Z,2.67
2023-03-14T01:51:41.495Z,2.10
2023-03-14T01:54:14.722Z,2.20
2023-03-14T01:56:46.247Z,2.33
2023-03-14T01:59:14.874Z,1.90
2023-03-14T02:01:45.524Z,2.20
2023-03-14T02:04:13.927Z,2.30
2023-03-14T02:06:51.035Z,2.07
2023-03-14T02:09:19.954Z,1.77
2023-03-14T02:11:48.756Z,1.83
2023-03-14T02:14:27.299Z,1.87
2023-03-14T02:16:56.104Z,1.80
2023-03-14T02:19:38.063Z,1.70
2023-03-14T02:22:13.045Z,1.47
2023-03-14T02:24:46.827Z,1.50
2023-03-14T02:27:17.719Z,1.57
2023-03-14T02:29:53.061Z,1.63
2023-03-14T02:32:22.904Z,2.03
2023-03-14T02:34:56.037Z,1.73
2023-03-14T02:37:29.337Z,1.93
2023-03-14T02:39:57.612Z,2.17
2023-03-14T02:42:27.329Z,2.20
2023-03-14T02:44:57.055Z,2.17
2023-03-14T02:47:30.815Z,2.60
2023-03-14T02:50:03.751Z,2.60
2023-03-14T02:52:32.346Z,2.50
2023-03-14T02:55:00.462Z,2.63
2023-03-14T02:57:29.929Z,2.83
2023-03-14T03:00:01.242Z,2.87
2023-03-14T03:02:29.664Z,3.00
2023-03-14T03:04:59.062Z,3.30
2023-03-14T03:07:27.518Z,4.33
2023-03-14T03:09:55.626Z,4.23
2023-03-14T03:12:23.849Z,4.20
2023-03-14T03:14:53.348Z,5.30
2023-03-14T03:17:21.456Z,4.60
2023-03-14T03:19:49.781Z,4.53
2023-03-14T03:22:18.005Z,4.40
2023-03-14T03:24:46.427Z,5.20
2023-03-14T03:27:14.694Z,4.50
2023-03-14T03:29:42.841Z,4.97
2023-03-14T03:32:12.373Z,4.10
2023-03-14T03:34:40.705Z,4.70
2023-03-14T03:37:08.801Z,4.67
2023-03-14T03:39:36.915Z,4.57
2023-03-14T03:42:05.318Z,4.43
2023-03-14T03:44:33.446Z,4.37
2023-03-14T03:47:01.588Z,4.70
2023-03-14T03:49:32.694Z,4.80
2023-03-14T03:52:01.592Z,4.37
2023-03-14T03:54:30.847Z,4.03
2023-03-14T03:56:59.067Z,4.40
2023-03-14T03:59:27.312Z,4.03
2023-03-14T04:01:55.635Z,4.20
2023-03-14T04:04:24.033Z,3.77
2023-03-14T04:06:53.897Z,3.40
2023-03-14T04:09:22.082Z,3.40
2023-03-14T04:11:50.202Z,3.70
2023-03-14T04:14:18.576Z,3.73
2023-03-14T04:16:46.924Z,4.63
2023-03-14T04:19:15.134Z,4.30
2023-03-14T04:21:45.827Z,3.90
2023-03-14T04:24:15.806Z,3.90
2023-03-14T04:26:43.915Z,4.17
2023-03-14T04:29:13.388Z,4.33
2023-03-14T04:31:41.814Z,3.90
2023-03-14T04:34:09.953Z,3.67
2023-03-14T04:36:39.947Z,4.23
2023-03-14T04:39:09.041Z,3.60
2023-03-14T04:45:19.987Z,4.07
2023-03-14T04:47:48.320Z,4.00
2023-03-14T04:50:16.579Z,4.00
2023-03-14T04:52:44.819Z,4.30
2023-03-14T04:55:12.925Z,4.83
2023-03-14T04:57:41.068Z,5.20
2023-03-14T05:00:10.865Z,4.30
2023-03-14T05:02:40.453Z,4.93
2023-03-14T05:05:09.103Z,4.60
2023-03-14T05:07:37.317Z,4.73
2023-03-14T05:10:05.961Z,4.53
2023-03-14T05:12:34.075Z,4.53
2023-03-14T05:15:02.229Z,4.17
2023-03-14T05:17:32.165Z,4.40
2023-03-14T05:20:01.732Z,4.30
2023-03-14T05:22:30.035Z,3.80
2023-03-14T05:25:00.007Z,3.13
2023-03-14T05:27:29.335Z,3.20
2023-03-14T05:29:57.761Z,2.87
2023-03-14T05:32:26.099Z,2.63
2023-03-14T05:34:54.240Z,2.40
2023-03-14T05:37:23.750Z,2.90
2023-03-14T05:39:51.822Z,2.47
2023-03-14T05:42:20.036Z,2.70
2023-03-14T05:44:48.488Z,2.30
2023-03-14T05:47:16.694Z,2.27
2023-03-14T05:49:44.812Z,2.63
2023-03-14T05:52:13.239Z,2.33
2023-03-14T05:54:42.800Z,2.63
2023-03-14T05:57:11.134Z,3.00
2023-03-14T05:59:39.346Z,2.87
2023-03-14T06:02:09.207Z,2.77
2023-03-14T06:04:37.444Z,2.77
2023-03-14T06:07:05.820Z,2.60
2023-03-14T06:09:34.022Z,2.63
2023-03-14T06:12:03.616Z,3.43
2023-03-14T06:14:32.060Z,3.50
2023-03-14T06:17:01.067Z,4.27
2023-03-14T06:19:29.362Z,3.80
2023-03-14T06:21:57.608Z,3.93
2023-03-14T06:24:25.740Z,3.40
2023-03-14T06:26:53.901Z,4.00
2023-03-14T06:29:23.594Z,3.60
2023-03-14T06:31:51.777Z,3.70
2023-03-14T06:34:19.944Z,3.07
2023-03-14T06:36:48.239Z,3.27
2023-03-14T06:39:16.354Z,3.00
2023-03-14T06:41:44.532Z,2.40
2023-03-14T06:47:54.939Z,2.97
2023-03-14T06:50:23.956Z,2.77
2023-03-14T06:52:52.111Z,2.80
2023-03-14T06:55:22.520Z,3.93
2023-03-14T06:57:50.809Z,2.93
2023-03-14T07:00:19.680Z,4.27
2023-03-14T07:02:50.409Z,4.00
2023-03-14T07:05:20.173Z,4.70
2023-03-14T07:07:48.591Z,4.57
2023-03-14T07:10:16.788Z,7.10
2023-03-14T07:12:44.892Z,6.77
2023-03-14T07:15:18.670Z,4.00
2023-03-14T07:17:49.130Z,4.97
2023-03-14T07:20:19.320Z,5.00
2023-03-14T07:22:50.459Z,6.47
2023-03-14T07:25:19.042Z,8.07
2023-03-14T07:27:47.798Z,9.20
2023-03-14T07:30:16.695Z,7.57
2023-03-14T07:32:44.950Z,6.63
2023-03-14T07:35:13.052Z,7.57
2023-03-14T07:37:42.876Z,5.70
2023-03-14T07:40:15.919Z,6.53
2023-03-14T07:42:44.646Z,8.37
2023-03-14T07:45:13.417Z,6.10
2023-03-14T07:47:41.590Z,5.83
2023-03-14T07:50:11.558Z,6.33
2023-03-14T07:52:39.814Z,5.77
2023-03-14T07:55:10.526Z,5.30
2023-03-14T07:57:38.746Z,5.63
2023-03-14T08:00:08.545Z,4.73
2023-03-14T08:02:37.524Z,3.60
2023-03-14T08:05:06.609Z,3.77
2023-03-14T08:07:34.998Z,3.37
2023-03-14T08:10:03.325Z,3.53
2023-03-14T08:12:33.130Z,3.40
2023-03-14T08:15:01.572Z,3.40
2023-03-14T08:17:29.665Z,3.57
2023-03-14T08:19:57.946Z,3.07
2023-03-14T08:22:26.266Z,3.00
2023-03-14T08:24:54.469Z,2.90
2023-03-14T08:27:22.777Z,3.03
2023-03-14T08:29:52.527Z,3.50
2023-03-14T08:32:21.291Z,3.30
2023-03-14T08:34:49.665Z,3.27
2023-03-14T08:37:26.170Z,3.70
2023-03-14T08:39:55.054Z,3.70
2023-03-14T08:42:23.473Z,3.63
2023-03-14T08:44:53.892Z,3.70
2023-03-14T08:47:22.243Z,3.77
2023-03-14T08:49:50.436Z,3.70
2023-03-14T08:52:18.815Z,4.10
2023-03-14T08:54:47.116Z,6.13
2023-03-14T08:57:15.614Z,3.97
2023-03-14T08:59:44.031Z,4.30
2023-03-14T09:02:14.336Z,4.50
2023-03-14T09:04:42.651Z,4.73
2023-03-14T09:07:10.733Z,4.40
2023-03-14T09:09:39.191Z,4.27
2023-03-14T09:12:07.779Z,4.17
2023-03-14T09:14:36.415Z,4.30
2023-03-14T09:17:05.937Z,3.93
2023-03-14T09:19:35.622Z,3.70
2023-03-14T09:22:04.716Z,4.40
2023-03-14T09:24:33.138Z,5.37
2023-03-14T09:27:01.274Z,4.17
2023-03-14T09:29:29.696Z,3.67
2023-03-14T09:32:00.167Z,4.63
2023-03-14T09:34:28.765Z,3.27
2023-03-14T09:36:58.348Z,3.67
2023-03-14T09:39:26.729Z,3.30
2023-03-14T09:41:57.392Z,3.60
2023-03-14T09:44:29.493Z,2.77
2023-03-14T09:47:03.149Z,3.47
2023-03-14T09:49:34.536Z,2.90
2023-03-14T09:52:15.214Z,3.10
2023-03-14T09:54:46.633Z,2.73
2023-03-14T09:57:19.007Z,2.80
2023-03-14T09:59:48.450Z,3.30
2023-03-14T10:02:19.853Z,2.90
2023-03-14T10:04:48.994Z,2.53
2023-03-14T10:07:20.751Z,2.60
2023-03-14T10:09:51.969Z,2.83
2023-03-14T10:12:21.492Z,2.63
2023-03-14T10:14:53.065Z,2.53
2023-03-14T10:17:22.528Z,2.83
2023-03-14T10:19:56.527Z,2.93
2023-03-14T10:22:30.031Z,3.10
2023-03-14T10:25:00.302Z,2.40
2023-03-14T10:27:32.403Z,3.33
2023-03-14T10:30:02.276Z,2.43
2023-03-14T10:32:34.448Z,2.70
2023-03-14T10:35:22.127Z,2.77
2023-03-14T10:37:55.527Z,2.30
2023-03-14T10:40:29.968Z,2.07
2023-03-14T10:43:00.762Z,2.00
2023-03-14T10:45:35.119Z,1.87
2023-03-14T10:48:21.190Z,1.90
2023-03-14T10:50:57.909Z,1.70
2023-03-14T10:53:28.570Z,1.73
2023-03-14T10:55:59.129Z,2.03
2023-03-14T10:58:30.500Z,1.30
2023-03-14T11:01:15.201Z,1.60
2023-03-14T11:03:50.038Z,1.70
2023-03-14T11:06:26.160Z,1.77
2023-03-14T11:09:06.653Z,1.40
2023-03-14T11:11:35.219Z,1.80
2023-03-14T11:14:14.717Z,2.03
2023-03-14T11:16:55.627Z,1.90
2023-03-14T11:19:50.241Z,1.90
2023-03-14T11:22:26.383Z,1.60
2023-03-14T11:25:11.834Z,1.90
2023-03-14T11:27:45.509Z,1.30
2023-03-14T11:30:23.365Z,1.70
2023-03-14T11:32:59.304Z,1.70
2023-03-14T11:35:32.832Z,1.73
2023-03-14T11:38:12.157Z,1.73
2023-03-14T11:40:42.455Z,1.67
2023-03-14T11:43:15.919Z,1.93
2023-03-14T11:45:45.209Z,1.80
2023-03-14T11:48:30.755Z,2.00
2023-03-14T11:51:01.975Z,2.00
2023-03-14T11:53:42.158Z,2.37
2023-03-14T11:56:20.260Z,1.90
2023-03-14T11:58:56.474Z,2.20
2023-03-14T12:01:29.421Z,2.30
2023-03-14T12:04:04.793Z,2.50
2023-03-14T12:06:40.547Z,2.50
2023-03-14T12:09:10.896Z,2.50
2023-03-14T12:11:46.016Z,2.57
2023-03-14T12:14:24.308Z,2.67
2023-03-14T12:20:33.446Z,2.30
2023-03-14T12:23:06.217Z,2.47
2023-03-14T12:25:35.764Z,2.57
2023-03-14T12:28:21.342Z,2.30
2023-03-14T12:30:49.997Z,3.00
2023-03-14T12:33:33.011Z,2.57
2023-03-14T12:36:13.079Z,3.30
2023-03-14T12:38:59.162Z,2.93
2023-03-14T12:41:31.867Z,2.63
2023-03-14T12:44:41.386Z,2.40
2023-03-14T12:47:42.879Z,3.00
2023-03-14T12:50:18.085Z,3.53
2023-03-14T12:52:58.272Z,3.00
2023-03-14T12:55:35.732Z,3.30
2023-03-14T12:58:10.055Z,3.10
2023-03-14T13:00:42.741Z,3.07
2023-03-14T13:03:23.354Z,3.30
2023-03-14T13:05:55.465Z,3.13
2023-03-14T13:08:40.630Z,3.40
2023-03-14T13:11:12.279Z,3.17
2023-03-14T13:13:47.617Z,3.77
2023-03-14T13:16:20.394Z,3.33
2023-03-14T13:18:50.340Z,4.33
2023-03-14T13:21:21.510Z,4.93
2023-03-14T13:24:01.431Z,4.40
2023-03-14T13:26:36.591Z,4.33
2023-03-14T13:29:16.921Z,3.53
2023-03-14T13:31:48.367Z,3.73
2023-03-14T13:34:17.089Z,3.60
2023-03-14T13:36:45.736Z,3.33
2023-03-14T13:39:18.181Z,3.53
2023-03-14T13:41:49.674Z,3.03
2023-03-14T13:44:20.510Z,2.60
2023-03-14T13:46:50.523Z,3.50
2023-03-14T13:49:24.647Z,3.23
2023-03-14T13:51:53.320Z,3.40
2023-03-14T13:54:24.810Z,3.37
2023-03-14T13:57:02.653Z,3.40
2023-03-14T13:59:32.810Z,3.00
2023-03-14T14:02:07.405Z,3.30
2023-03-14T14:04:38.326Z,2.70
2023-03-14T14:07:12.927Z,3.40
2023-03-14T14:09:44.106Z,2.90
2023-03-14T14:12:17.726Z,2.70
2023-03-14T14:14:49.750Z,2.60
2023-03-14T14:17:23.888Z,3.13
2023-03-14T14:19:52.868Z,2.30
2023-03-14T14:22:22.309Z,2.47
2023-03-14T14:24:52.650Z,2.60
2023-03-14T14:27:27.629Z,2.80
2023-03-14T14:30:04.779Z,2.63
2023-03-14T14:32:39.773Z,1.90
2023-03-14T14:35:11.513Z,1.87
2023-03-14T14:37:44.945Z,1.83
2023-03-14T14:40:21.147Z,1.40
2023-03-14T14:42:50.288Z,1.80
2023-03-14T14:45:21.080Z,2.07
2023-03-14T14:47:55.511Z,1.67
2023-03-14T14:50:31.157Z,1.80
2023-03-14T14:53:00.427Z,1.70
2023-03-14T14:55:34.536Z,1.80
2023-03-14T14:58:22.482Z,1.50
2023-03-14T15:00:58.553Z,1.70
2023-03-14T15:04:04.257Z,1.53
2023-03-14T15:10:17.005Z,1.87
2023-03-14T15:16:31.080Z,2.90
2023-03-14T15:19:01.923Z,2.77
2023-03-14T15:21:31.803Z,2.80
2023-03-14T15:23:59.955Z,2.00
2023-03-14T15:26:30.121Z,2.03
2023-03-14T15:28:58.567Z,2.20
2023-03-14T15:31:26.704Z,2.23
2023-03-14T15:33:54.873Z,2.00
2023-03-14T15:36:25.895Z,2.20
2023-03-14T15:38:55.298Z,1.90
2023-03-14T15:41:25.098Z,1.90
2023-03-14T15:47:36.097Z,2.23
2023-03-14T15:53:45.495Z,2.17
2023-03-14T15:59:54.683Z,2.30
2023-03-14T16:02:22.853Z,2.83
2023-03-14T16:04:52.448Z,2.77
2023-03-14T16:07:20.844Z,2.40
2023-03-14T16:09:49.158Z,2.57
2023-03-14T16:12:17.291Z,3.07
2023-03-14T16:14:45.770Z,2.33
2023-03-14T16:17:13.899Z,2.70
2023-03-14T16:19:42.093Z,2.80
2023-03-14T16:22:12.187Z,2.93
2023-03-14T16:24:40.332Z,2.47
2023-03-14T16:27:08.649Z,2.93
2023-03-14T16:29:37.252Z,2.90
2023-03-14T16:32:06.068Z,2.63
2023-03-14T16:34:34.283Z,2.30
2023-03-14T16:37:02.622Z,2.40
2023-03-14T16:39:32.883Z,3.17
2023-03-14T16:42:01.103Z,2.63
2023-03-14T16:44:29.538Z,3.20
2023-03-14T16:46:57.657Z,2.87
2023-03-14T16:49:25.890Z,2.97
2023-03-14T16:51:56.768Z,3.07
2023-03-14T16:54:24.925Z,3.83
2023-03-14T16:56:54.543Z,3.03
2023-03-14T16:59:22.837Z,3.03
2023-03-14T17:01:51.069Z,2.53
2023-03-14T17:04:19.768Z,3.40
2023-03-14T17:06:48.376Z,4.10
2023-03-14T17:09:16.600Z,4.17
2023-03-14T17:11:44.741Z,3.70
2023-03-14T17:14:15.166Z,3.00
2023-03-14T17:16:43.376Z,3.20
2023-03-14T17:19:11.516Z,2.87
2023-03-14T17:21:41.865Z,6.63
2023-03-14T17:24:10.114Z,6.33
2023-03-14T17:26:38.249Z,9.00
2023-03-14T17:29:06.903Z,7.87
2023-03-14T17:31:36.574Z,6.10
2023-03-14T17:34:04.920Z,5.87
2023-03-14T17:36:33.206Z,5.37
2023-03-14T17:39:01.293Z,5.90
2023-03-14T17:41:29.415Z,5.30
2023-03-14T17:43:58.243Z,4.53
2023-03-14T17:46:27.302Z,4.73
2023-03-14T17:48:56.814Z,5.07
2023-03-14T17:51:30.413Z,4.80
2023-03-14T17:53:58.571Z,3.93
2023-03-14T17:56:26.869Z,3.83
2023-03-14T17:58:55.114Z,4.43
2023-03-14T18:01:23.363Z,4.50
2023-03-14T18:03:56.584Z,3.90
2023-03-14T18:06:30.126Z,3.60
2023-03-14T18:08:59.321Z,3.40
2023-03-14T18:11:27.735Z,3.27
2023-03-14T18:13:55.861Z,3.53
2023-03-14T18:16:25.016Z,3.23
2023-03-14T18:18:54.030Z,4.07
2023-03-14T18:21:22.458Z,4.00
2023-03-14T18:23:52.494Z,4.00
2023-03-14T18:26:21.472Z,3.63
2023-03-14T18:28:49.590Z,4.20
2023-03-14T18:31:22.370Z,3.93
2023-03-14T18:33:52.700Z,3.80
2023-03-14T18:36:21.052Z,3.63
2023-03-14T18:38:50.867Z,3.50
2023-03-14T18:41:21.115Z,4.00
2023-03-14T18:43:49.297Z,4.20
2023-03-14T18:46:17.668Z,3.80
2023-03-14T18:48:46.044Z,4.33
2023-03-14T18:51:16.166Z,4.30
2023-03-14T18:53:45.236Z,4.87
2023-03-14T18:56:14.415Z,4.37
2023-03-14T18:58:44.571Z,4.70
2023-03-14T19:01:13.524Z,4.50
2023-03-14T19:03:42.158Z,4.70
2023-03-14T19:06:12.137Z,5.00
2023-03-14T19:08:42.763Z,5.20
2023-03-14T19:11:12.931Z,5.10
2023-03-14T19:13:43.719Z,5.63
2023-03-14T19:16:13.528Z,4.90
2023-03-14T19:18:42.258Z,5.30
2023-03-14T19:21:13.318Z,6.30
2023-03-14T19:23:43.964Z,6.50
2023-03-14T19:26:12.150Z,6.80
2023-03-14T19:28:40.526Z,6.57
2023-03-14T19:31:11.064Z,6.97
2023-03-14T19:33:39.217Z,6.37
2023-03-14T19:36:08.864Z,6.20
2023-03-14T19:38:37.156Z,6.13
2023-03-14T19:41:05.545Z,6.73
2023-03-14T19:43:34.295Z,6.50
2023-03-14T19:46:02.568Z,6.17
2023-03-14T19:48:33.614Z,6.57
2023-03-14T19:51:02.436Z,6.40
2023-03-14T19:53:31.372Z,7.67
2023-03-14T19:55:59.631Z,13.07
2023-03-14T19:58:28.188Z,8.83
2023-03-14T20:00:57.648Z,8.03
2023-03-14T20:03:26.471Z,6.03
2023-03-14T20:05:56.376Z,6.83
2023-03-14T20:08:24.979Z,7.33
2023-03-14T20:10:53.130Z,7.13
2023-03-14T20:13:22.732Z,5.13
2023-03-14T20:15:53.077Z,4.00
2023-03-14T20:18:23.294Z,4.70
2023-03-14T20:20:52.196Z,5.40
2023-03-14T20:23:21.874Z,5.50
2023-03-14T20:25:55.774Z,4.00
2023-03-14T20:28:24.326Z,3.80
2023-03-14T20:30:52.956Z,3.70
2023-03-14T20:33:21.945Z,3.00
2023-03-14T20:35:56.099Z,3.20
2023-03-14T20:38:27.244Z,3.23
2023-03-14T20:40:57.163Z,2.60
2023-03-14T20:43:25.665Z,2.50
2023-03-14T20:45:55.495Z,2.63
2023-03-14T20:48:24.213Z,2.70
2023-03-14T20:50:53.319Z,3.03
2023-03-14T20:53:22.684Z,3.40
2023-03-14T20:55:52.771Z,7.17
2023-03-14T20:58:21.010Z,5.90
2023-03-14T21:00:51.041Z,4.40
2023-03-14T21:03:20.389Z,4.07
2023-03-14T21:05:49.786Z,5.60
2023-03-14T21:08:20.213Z,5.90
2023-03-14T21:10:49.029Z,4.50
2023-03-14T21:13:18.809Z,4.13
2023-03-14T21:15:47.132Z,4.57
2023-03-14T21:18:15.631Z,4.87
2023-03-14T21:20:44.142Z,5.30
2023-03-14T21:23:12.966Z,5.50
2023-03-14T21:25:44.567Z,5.80
2023-03-14T21:28:13.081Z,6.30
2023-03-14T21:30:43.349Z,6.47
2023-03-14T21:33:11.536Z,6.77
2023-03-14T21:35:39.690Z,6.30
2023-03-14T21:38:08.144Z,6.53
2023-03-14T21:40:37.602Z,7.27
2023-03-14T21:43:06.632Z,6.67
2023-03-14T21:45:36.472Z,7.27
2023-03-14T21:48:06.335Z,8.80
2023-03-14T21:50:34.562Z,7.40
2023-03-14T21:53:03.274Z,7.17
2023-03-14T21:55:31.657Z,7.27
2023-03-14T21:57:59.768Z,7.23
2023-03-14T22:00:28.262Z,8.87
2023-03-14T22:03:12.927Z,6.90
2023-03-14T22:05:45.207Z,6.70
2023-03-14T22:08:15.422Z,6.30
2023-03-14T22:10:47.373Z,6.73
2023-03-14T22:13:16.558Z,6.13
2023-03-14T22:15:46.021Z,5.43
2023-03-14T22:18:14.563Z,7.30
2023-03-14T22:20:44.575Z,6.40
2023-03-14T22:23:13.679Z,5.73
2023-03-14T22:25:42.638Z,5.30
2023-03-14T22:28:11.028Z,5.67
2023-03-14T22:30:39.438Z,5.60
2023-03-14T22:33:08.541Z,5.67
2023-03-14T22:35:36.752Z,6.00
2023-03-14T22:38:06.289Z,5.30
2023-03-14T22:40:34.450Z,6.03
2023-03-14T22:43:02.590Z,5.57
2023-03-14T22:45:30.872Z,5.47
2023-03-14T22:47:59.342Z,5.67
2023-03-14T22:50:27.521Z,5.30
2023-03-14T22:52:58.271Z,5.40
2023-03-14T22:55:28.134Z,5.30
2023-03-14T22:57:57.681Z,5.23
2023-03-14T23:00:27.051Z,5.00
2023-03-14T23:02:55.621Z,4.40
2023-03-14T23:05:24.269Z,5.10
2023-03-14T23:07:53.416Z,4.47
2023-03-14T23:10:21.943Z,4.67
2023-03-14T23:12:57.813Z,4.40
2023-03-14T23:15:27.182Z,3.83
2023-03-14T23:17:55.329Z,4.67
2023-03-14T23:20:23.552Z,4.47
2023-03-14T23:22:51.961Z,4.50
2023-03-14T23:25:20.258Z,4.20
2023-03-14T23:27:48.437Z,6.10
2023-03-14T23:30:18.707Z,7.60
2023-03-14T23:32:47.206Z,7.07
2023-03-14T23:35:15.981Z,7.27
2023-03-14T23:37:44.319Z,6.63
2023-03-14T23:40:13.454Z,8.03
2023-03-14T23:42:41.656Z,6.13
2023-03-14T23:45:14.302Z,5.40
2023-03-14T23:47:43.827Z,5.00
2023-03-14T23:50:12.919Z,4.60
2023-03-14T23:52:41.068Z,4.60
2023-03-14T23:55:09.946Z,4.77
2023-03-14T23:57:38.156Z,4.80
